South Beach, OR

5:38 PM PDT on August 27, 2016 (GMT -0700)
Stormwatcher's Retreat | | Change Station

Elev 26 ft 44.31 °N, 124.11 °W | Updated 3 minutes ago

Overcast
Overcast
54.9 °F
Feels Like 54.9 °F
N
0.0
Wind Variable Wind from SSW
Gusts 0.0 mph

Today
High -- | Low -- °F
--% Chance of Precip.
Yesterday
High -- | Low -- °F
Precip. -- in
Pressure 30.04 in
Visibility 5.0 miles
Clouds Overcast 500 ft
Dew Point 53.8 °F
Humidity 96%
Rainfall 0.00 in
Snow Depth Not available.
6:33 AM 8:00 PM
Waning Crescent, 20% visible
METAR KONP 280015Z AUTO 20004KT 5SM BR OVC005 14/12 A3004 RMK AO2
Pressure 30.04 in
Visibility 5.0 miles
Clouds Overcast 500 ft
Dew Point 53.8 °F
Humidity 96%
Rainfall 0.00 in
Snow Depth Not available.
6:33 AM 8:00 PM
Waning Crescent, 20% visible
METAR KONP 280015Z AUTO 20004KT 5SM BR OVC005 14/12 A3004 RMK AO2

10-Day Weather Forecast

Almanac

Astronomy

Aug. 27, 2016 Rise Set
Actual Time
Civil Twilight
Nautical Twilight
Astronomical Twilight
Moon
Length of Visible Light
Length of Day
Tomorrow will be .
, % of the Moon is Illuminated

Today's Extremes

State Highs State Lows

Community

WunderPhotos

Upload Photos

1,935,475 photos uploaded!

WunderBlog® & News

Nearby

Air Quality

  Air Quality AQ Index Pollutant
Not available.

Snow Depth

Station Depth Elevation

Earthquake Activity

City Distance Mag. Time & Date
Minimum magnitude displayed is 2.5.

Coastal Water Temperatures

Place Temperature

Stations

Nearby Weather Stations

Station Location Temp. Windchill Dew Point Humidity Wind Precip. Elev Updated Type
                   

Watches & Warnings

There are currently no watches in effect.